Hoosick Junction, New York
Current Conditions -  °F | °C
As of 12:54 PM on Saturday 25 Oct 2014 (Local Time) from KDDH Reporting Station
Scattered Clouds Scattered Clouds  
Wind Chill: 13°   Ceiling: Unl
Heat Index: 13°   Visibility: 10mi
Dew Point:   Wind: 7mph
Humidity: 69%   Direction: 220°SW
Pressure: 29.71"   Gusts: NA
Location:  42.9226°N, 73.3603°W
Report Text: KDDH 251654Z AUTO 22006KT 10SM SCT023 13/07 A2971 RMK AO2 SLP064 T01280072
Loading
Personal Weather Stations






























Interactive Weather Map
Tropical Storm Tracking
New forecast layout! Learn more

10-Day Weather Forecast

Advertisements
Track Severe Weather on mobile